Terminal Aerodrome Forecast
Issued by NWS Topeka, KS

Home | Current Version | Previous Version | Graphics & Text | Print | Product List | Glossary On
Versions: 1 2 3 4 5 6 7 8 9 10 11 12 13 14 15 16 17 18 19
397
FTUS43 KTOP 161724
TAFTOP
TAF
KTOP 161724Z 1618/1718 13010KT P6SM FEW250
     FM170400 14008KT P6SM BKN050
     FM170700 17010KT P6SM FEW008 BKN020
     FM171200 17012KT P6SM OVC008=

USA.gov is the U.S. government's official web portal to all federal, state and local government web resources and services.